createdAt,value
2023-05-22T00:01:47.243Z,16.60
2023-05-22T00:04:24.114Z,16.70
2023-05-22T00:07:07.171Z,16.50
2023-05-22T00:09:44.683Z,16.40
2023-05-22T00:12:25.615Z,16.40
2023-05-22T00:15:01.512Z,16.30
2023-05-22T00:17:37.766Z,16.40
2023-05-22T00:20:15.856Z,16.30
2023-05-22T00:23:01.665Z,16.20
2023-05-22T00:25:38.242Z,16.20
2023-05-22T00:28:21.979Z,16.20
2023-05-22T00:30:58.695Z,16.10
2023-05-22T00:33:39.246Z,16.10
2023-05-22T00:36:19.176Z,16.10
2023-05-22T00:39:00.735Z,16.00
2023-05-22T00:41:43.266Z,16.00
2023-05-22T00:44:23.593Z,15.90
2023-05-22T00:47:00.343Z,15.90
2023-05-22T00:49:49.393Z,15.80
2023-05-22T00:52:23.229Z,15.80
2023-05-22T00:54:59.304Z,15.80
2023-05-22T00:57:39.029Z,15.70
2023-05-22T01:00:19.942Z,15.70
2023-05-22T01:02:57.728Z,15.70
2023-05-22T01:05:49.385Z,15.70
2023-05-22T01:08:33.512Z,15.60
2023-05-22T01:11:08.961Z,15.60
2023-05-22T01:13:46.915Z,15.60
2023-05-22T01:16:25.650Z,15.50
2023-05-22T01:19:01.360Z,15.50
2023-05-22T01:21:49.565Z,15.50
2023-05-22T01:24:57.259Z,15.40
2023-05-22T01:27:44.596Z,15.40
2023-05-22T01:30:35.195Z,15.40
2023-05-22T01:36:15.454Z,15.30
2023-05-22T01:39:03.850Z,15.30
2023-05-22T01:44:16.309Z,15.20
2023-05-22T01:46:49.745Z,15.10
2023-05-22T01:49:30.752Z,15.10
2023-05-22T01:52:19.459Z,15.10
2023-05-22T01:55:00.245Z,15.00
2023-05-22T01:57:35.293Z,15.00
2023-05-22T02:00:14.757Z,15.00
2023-05-22T02:03:05.160Z,15.00
2023-05-22T02:09:25.608Z,14.90
2023-05-22T02:12:01.359Z,14.90
2023-05-22T02:14:43.901Z,14.80
2023-05-22T02:17:32.599Z,14.80
2023-05-22T02:20:15.378Z,14.80
2023-05-22T02:22:59.748Z,14.70
2023-05-22T02:25:35.880Z,14.70
2023-05-22T02:28:13.247Z,14.60
2023-05-22T02:30:51.953Z,14.60
2023-05-22T02:33:28.750Z,14.60
2023-05-22T02:36:12.424Z,14.60
2023-05-22T02:39:01.906Z,14.60
2023-05-22T02:41:59.266Z,14.50
2023-05-22T02:44:35.413Z,14.50
2023-05-22T02:47:11.805Z,14.50
2023-05-22T02:49:55.640Z,14.40
2023-05-22T02:52:28.452Z,14.40
2023-05-22T02:55:13.599Z,14.40
2023-05-22T02:57:56.507Z,14.30
2023-05-22T03:00:38.846Z,14.30
2023-05-22T03:06:20.677Z,14.30
2023-05-22T04:03:48.170Z,14.60
2023-05-22T04:06:27.146Z,14.60
2023-05-22T04:09:04.279Z,14.80
2023-05-22T04:11:46.090Z,14.90
2023-05-22T04:14:29.196Z,15.00
2023-05-22T04:17:08.317Z,15.20
2023-05-22T04:26:10.602Z,15.90
2023-05-22T04:28:53.175Z,16.20
2023-05-22T04:31:40.565Z,16.30
2023-05-22T04:34:25.772Z,16.50
2023-05-22T04:37:20.806Z,16.80
2023-05-22T04:40:23.916Z,17.00
2023-05-22T04:43:21.232Z,17.20
2023-05-22T04:46:13.924Z,17.30
2023-05-22T04:48:55.677Z,17.40
2023-05-22T04:54:45.072Z,17.80
2023-05-22T05:00:28.861Z,18.20
2023-05-22T05:03:10.586Z,18.40
2023-05-22T05:05:52.412Z,18.60
2023-05-22T05:08:42.652Z,18.80
2023-05-22T05:11:29.240Z,18.90
2023-05-22T05:14:17.554Z,19.10
2023-05-22T05:17:08.520Z,19.20
2023-05-22T05:19:55.583Z,19.40
2023-05-22T05:22:40.482Z,19.50
2023-05-22T05:25:18.885Z,19.60
2023-05-22T05:28:00.907Z,19.70
2023-05-22T05:30:45.430Z,19.90
2023-05-22T05:33:38.308Z,20.10
2023-05-22T05:36:17.945Z,20.30
2023-05-22T05:38:57.117Z,20.40
2023-05-22T05:41:32.126Z,20.50
2023-05-22T05:44:14.378Z,20.70
2023-05-22T05:46:52.912Z,20.90
2023-05-22T05:49:29.173Z,21.00
2023-05-22T05:52:08.688Z,21.20
2023-05-22T05:54:47.872Z,21.40
2023-05-22T05:57:27.380Z,21.30
2023-05-22T06:00:03.813Z,21.40
2023-05-22T06:02:54.505Z,21.60
2023-05-22T06:05:50.160Z,21.80
2023-05-22T06:08:45.603Z,22.00
2023-05-22T06:11:22.423Z,22.00
2023-05-22T06:20:14.221Z,22.20
2023-05-22T06:22:52.607Z,22.20
2023-05-22T06:25:30.342Z,22.20
2023-05-22T06:28:07.469Z,22.20
2023-05-22T06:30:43.128Z,22.30
2023-05-22T06:33:24.983Z,22.30
2023-05-22T06:36:04.150Z,22.40
2023-05-22T06:38:42.244Z,22.50
2023-05-22T06:41:27.645Z,22.70
2023-05-22T06:44:02.639Z,22.90
2023-05-22T06:46:40.905Z,23.10
2023-05-22T06:49:19.929Z,23.30
2023-05-22T06:52:03.907Z,23.40
2023-05-22T06:54:43.451Z,23.40
2023-05-22T06:57:21.994Z,23.60
2023-05-22T06:59:57.679Z,23.80
2023-05-22T07:02:52.420Z,24.10
2023-05-22T07:05:40.961Z,24.30
2023-05-22T07:08:19.844Z,24.30
2023-05-22T07:10:54.283Z,24.50
2023-05-22T07:13:32.661Z,24.60
2023-05-22T07:16:08.279Z,24.80
2023-05-22T07:19:09.735Z,25.00
2023-05-22T07:21:52.154Z,25.10
2023-05-22T07:24:48.635Z,25.10
2023-05-22T07:27:28.419Z,25.30
2023-05-22T07:30:08.765Z,25.50
2023-05-22T07:32:50.233Z,25.50
2023-05-22T07:35:30.964Z,25.60
2023-05-22T07:38:13.093Z,25.70
2023-05-22T07:41:00.389Z,25.70
2023-05-22T07:43:39.956Z,25.70
2023-05-22T07:46:35.676Z,25.70
2023-05-22T07:49:25.258Z,25.70
2023-05-22T07:52:11.304Z,25.90
2023-05-22T07:54:59.496Z,26.00
2023-05-22T07:57:53.374Z,26.10
2023-05-22T08:00:42.512Z,26.20
2023-05-22T08:03:22.256Z,26.50
2023-05-22T08:06:04.979Z,26.60
2023-05-22T08:08:44.679Z,26.80
2023-05-22T08:11:26.612Z,26.90
2023-05-22T08:14:08.986Z,27.10
2023-05-22T08:16:47.901Z,27.20
2023-05-22T08:19:28.884Z,27.40
2023-05-22T08:22:09.606Z,27.50
2023-05-22T08:24:54.172Z,27.70
2023-05-22T08:27:35.262Z,27.80
2023-05-22T08:30:19.201Z,27.80
2023-05-22T08:33:00.543Z,27.80
2023-05-22T08:35:38.175Z,27.80
2023-05-22T08:38:21.274Z,27.90
2023-05-22T08:40:57.740Z,28.00
2023-05-22T08:43:37.915Z,28.00
2023-05-22T08:46:18.398Z,28.00
2023-05-22T08:49:04.519Z,28.00
2023-05-22T08:51:51.183Z,28.00
2023-05-22T08:54:40.832Z,27.90
2023-05-22T08:57:16.107Z,27.80
2023-05-22T08:59:58.029Z,27.80
2023-05-22T09:02:37.210Z,27.70
2023-05-22T09:05:21.267Z,27.70
2023-05-22T09:08:08.434Z,27.80
2023-05-22T09:10:56.129Z,27.80
2023-05-22T09:13:33.913Z,27.70
2023-05-22T09:16:15.418Z,27.60
2023-05-22T09:19:00.528Z,27.50
2023-05-22T09:21:41.302Z,27.50
2023-05-22T09:24:19.104Z,27.50
2023-05-22T09:27:04.486Z,27.50
2023-05-22T09:36:15.681Z,27.00
2023-05-22T09:42:12.943Z,27.10
2023-05-22T09:48:02.765Z,27.20
2023-05-22T09:50:53.612Z,27.20
2023-05-22T09:53:49.842Z,27.20
2023-05-22T09:56:39.272Z,27.20
2023-05-22T09:59:24.317Z,27.20
2023-05-22T10:02:08.720Z,27.10
2023-05-22T10:04:52.726Z,27.00
2023-05-22T10:07:32.552Z,26.90
2023-05-22T10:10:23.234Z,26.70
2023-05-22T10:13:10.344Z,26.50
2023-05-22T10:18:59.513Z,26.30
2023-05-22T10:21:47.897Z,26.20
2023-05-22T10:24:31.985Z,26.20
2023-05-22T10:27:07.703Z,26.10
2023-05-22T10:29:57.095Z,26.00
2023-05-22T10:32:39.528Z,25.80
2023-05-22T10:35:34.352Z,25.80
2023-05-22T10:38:23.150Z,25.80
2023-05-22T10:41:00.455Z,25.80
2023-05-22T10:43:50.946Z,25.60
2023-05-22T10:46:27.704Z,25.70
2023-05-22T10:49:30.599Z,25.70
2023-05-22T10:55:21.401Z,25.80
2023-05-22T11:01:53.126Z,25.80
2023-05-22T11:04:29.368Z,25.60
2023-05-22T11:07:36.000Z,25.50
2023-05-22T11:10:47.521Z,25.40
2023-05-22T11:13:38.844Z,25.30
2023-05-22T11:22:28.984Z,25.40
2023-05-22T11:25:34.406Z,25.50
2023-05-22T11:28:52.981Z,25.50
2023-05-22T11:37:52.269Z,25.60
2023-05-22T11:40:30.019Z,25.60
2023-05-22T11:43:09.156Z,25.70
2023-05-22T11:45:54.321Z,25.70
2023-05-22T11:51:53.485Z,25.80
2023-05-22T11:54:31.563Z,25.80
2023-05-22T12:03:29.849Z,25.80
2023-05-22T12:15:40.433Z,25.50
2023-05-22T12:18:16.724Z,25.50
2023-05-22T12:20:51.264Z,25.50
2023-05-22T12:23:28.359Z,25.40
2023-05-22T12:26:03.511Z,25.40
2023-05-22T12:28:40.125Z,25.30
2023-05-22T12:31:24.724Z,25.30
2023-05-22T12:34:02.635Z,25.20
2023-05-22T12:36:43.707Z,25.20
2023-05-22T12:39:22.757Z,25.10
2023-05-22T12:41:59.421Z,25.10
2023-05-22T12:44:35.351Z,25.10
2023-05-22T12:47:15.309Z,25.00
2023-05-22T12:49:55.376Z,25.00
2023-05-22T12:52:29.858Z,25.00
2023-05-22T12:55:14.306Z,25.00
2023-05-22T12:57:53.619Z,25.10
2023-05-22T13:00:30.524Z,25.20
2023-05-22T13:03:14.322Z,25.20
2023-05-22T13:05:50.381Z,25.30
2023-05-22T13:08:26.539Z,25.30
2023-05-22T13:11:04.686Z,25.30
2023-05-22T13:13:40.319Z,25.40
2023-05-22T13:16:23.845Z,25.40
2023-05-22T13:18:58.400Z,25.40
2023-05-22T13:21:40.456Z,25.40
2023-05-22T13:24:16.573Z,25.40
2023-05-22T13:26:54.684Z,25.50
2023-05-22T13:29:33.563Z,25.50
2023-05-22T13:32:12.981Z,25.50
2023-05-22T13:34:49.366Z,25.50
2023-05-22T13:37:27.612Z,25.50
2023-05-22T13:40:04.864Z,25.50
2023-05-22T13:42:40.117Z,25.40
2023-05-22T13:45:15.657Z,25.40
2023-05-22T13:47:50.704Z,25.40
2023-05-22T13:50:25.780Z,25.40
2023-05-22T13:53:05.410Z,25.40
2023-05-22T13:55:40.854Z,25.40
2023-05-22T13:58:15.695Z,25.30
2023-05-22T14:00:51.106Z,25.30
2023-05-22T14:03:27.147Z,25.30
2023-05-22T14:06:02.842Z,25.30
2023-05-22T14:08:40.485Z,25.30
2023-05-22T14:11:15.756Z,25.20
2023-05-22T14:13:52.514Z,25.20
2023-05-22T14:16:28.856Z,25.20
2023-05-22T14:19:05.166Z,25.20
2023-05-22T14:21:40.340Z,25.20
2023-05-22T14:24:18.872Z,25.20
2023-05-22T14:26:58.362Z,25.20
2023-05-22T14:29:33.580Z,25.10
2023-05-22T14:32:09.390Z,25.10
2023-05-22T14:34:46.111Z,25.10
2023-05-22T14:37:22.070Z,25.10
2023-05-22T14:40:01.131Z,25.20
2023-05-22T14:42:46.338Z,25.10
2023-05-22T14:45:22.165Z,25.10
2023-05-22T14:47:58.050Z,25.10
2023-05-22T14:50:37.418Z,25.10
2023-05-22T14:53:13.334Z,25.10
2023-05-22T14:55:52.538Z,25.10
2023-05-22T14:58:29.199Z,25.10
2023-05-22T15:01:08.534Z,25.10
2023-05-22T15:03:45.108Z,25.10
2023-05-22T15:06:26.150Z,25.10
2023-05-22T15:09:09.054Z,25.10
2023-05-22T15:11:52.966Z,25.10
2023-05-22T15:14:30.691Z,25.10
2023-05-22T15:17:08.433Z,25.10
2023-05-22T15:19:50.656Z,25.10
2023-05-22T15:22:28.866Z,25.00
2023-05-22T15:25:10.603Z,25.10
2023-05-22T15:27:56.168Z,25.00
2023-05-22T15:30:38.114Z,25.00
2023-05-22T15:33:22.564Z,25.00
2023-05-22T15:36:00.742Z,24.90
2023-05-22T15:38:41.134Z,25.00
2023-05-22T15:41:18.948Z,24.90
2023-05-22T15:44:02.878Z,24.90
2023-05-22T15:46:38.570Z,24.90
2023-05-22T15:49:17.882Z,24.90
2023-05-22T15:51:59.305Z,24.80
2023-05-22T15:54:39.777Z,24.80
2023-05-22T15:57:20.310Z,24.80
2023-05-22T15:59:59.448Z,24.80
2023-05-22T16:02:37.595Z,24.80
2023-05-22T16:05:24.339Z,24.70
2023-05-22T16:08:03.783Z,24.70
2023-05-22T16:10:41.892Z,24.70
2023-05-22T16:13:20.148Z,24.70
2023-05-22T16:16:00.269Z,24.70
2023-05-22T16:21:47.581Z,24.60
2023-05-22T16:24:24.283Z,24.60
2023-05-22T16:27:01.271Z,24.50
2023-05-22T16:29:54.781Z,24.50
2023-05-22T16:32:48.284Z,24.40
2023-05-22T16:35:31.675Z,24.30
2023-05-22T16:38:12.858Z,24.30
2023-05-22T16:40:59.684Z,24.20
2023-05-22T16:43:42.383Z,24.10
2023-05-22T16:46:18.157Z,24.10
2023-05-22T16:48:56.896Z,23.90
2023-05-22T16:51:30.688Z,23.90
2023-05-22T16:54:34.930Z,23.80
2023-05-22T17:00:29.490Z,23.80
2023-05-22T17:03:06.993Z,23.70
2023-05-22T17:05:49.921Z,23.60
2023-05-22T17:08:28.513Z,23.60
2023-05-22T17:11:03.701Z,23.50
2023-05-22T17:13:49.195Z,23.40
2023-05-22T17:20:10.085Z,23.30
2023-05-22T17:22:44.684Z,23.20
2023-05-22T17:28:46.381Z,23.10
2023-05-22T17:31:46.795Z,23.10
2023-05-22T17:34:30.130Z,23.00
2023-05-22T17:37:33.063Z,22.90
2023-05-22T17:43:04.057Z,22.80
2023-05-22T17:45:50.487Z,22.70
2023-05-22T17:48:30.459Z,22.60
2023-05-22T17:51:05.784Z,22.50
2023-05-22T17:53:49.329Z,22.40
2023-05-22T17:59:44.351Z,22.30
2023-05-22T18:05:24.557Z,22.20
2023-05-22T18:08:13.855Z,22.10
2023-05-22T18:10:52.497Z,22.10
2023-05-22T18:13:31.261Z,22.00
2023-05-22T18:22:34.436Z,21.90
2023-05-22T18:28:11.884Z,21.70
2023-05-22T18:33:52.286Z,21.50
2023-05-22T18:36:32.430Z,21.50
2023-05-22T18:39:13.074Z,21.40
2023-05-22T18:48:06.462Z,21.20
2023-05-22T18:50:43.805Z,21.10
2023-05-22T18:53:30.071Z,21.00
2023-05-22T18:56:19.237Z,21.00
2023-05-22T18:58:57.726Z,20.90
2023-05-22T19:01:39.023Z,20.80
2023-05-22T19:04:23.098Z,20.70
2023-05-22T19:06:58.523Z,20.70
2023-05-22T19:09:37.667Z,20.60
2023-05-22T19:12:11.522Z,20.60
2023-05-22T19:14:53.361Z,20.50
2023-05-22T19:17:34.672Z,20.50
2023-05-22T19:20:14.540Z,20.40
2023-05-22T19:22:52.107Z,20.30
2023-05-22T19:25:38.735Z,20.20
2023-05-22T19:28:19.177Z,20.20
2023-05-22T19:33:49.630Z,20.10
2023-05-22T19:36:26.153Z,20.00
2023-05-22T19:39:16.292Z,19.90
2023-05-22T19:41:53.136Z,19.90
2023-05-22T19:44:50.640Z,19.80
2023-05-22T19:47:31.202Z,19.80
2023-05-22T19:56:12.933Z,19.70
2023-05-22T19:58:52.355Z,19.50
2023-05-22T20:01:31.467Z,19.50
2023-05-22T20:04:10.828Z,19.50
2023-05-22T20:06:49.689Z,19.40
2023-05-22T20:09:31.580Z,19.40
2023-05-22T20:12:17.850Z,19.40
2023-05-22T20:14:59.505Z,19.30
2023-05-22T20:17:48.133Z,19.30
2023-05-22T20:20:26.335Z,19.20
2023-05-22T20:23:09.600Z,19.10
2023-05-22T20:25:49.154Z,19.10
2023-05-22T20:28:28.545Z,19.00
2023-05-22T20:31:05.978Z,18.90
2023-05-22T20:33:42.930Z,18.90
2023-05-22T20:36:21.295Z,18.80
2023-05-22T20:39:03.722Z,18.70
2023-05-22T20:41:43.228Z,18.70
2023-05-22T20:44:36.778Z,18.60
2023-05-22T20:47:13.716Z,18.60
2023-05-22T20:49:52.758Z,18.40
2023-05-22T20:52:35.208Z,18.40
2023-05-22T20:58:23.662Z,18.30
2023-05-22T21:07:09.749Z,18.00
2023-05-22T21:12:39.057Z,17.90
2023-05-22T21:15:27.637Z,17.80
2023-05-22T21:18:10.280Z,17.90
2023-05-22T21:20:53.591Z,17.80
2023-05-22T21:23:34.414Z,17.70
2023-05-22T21:26:13.670Z,17.60
2023-05-22T21:28:52.902Z,17.50
2023-05-22T21:31:44.792Z,17.50
2023-05-22T21:34:21.890Z,17.50
2023-05-22T21:36:58.109Z,17.40
2023-05-22T21:39:34.452Z,17.40
2023-05-22T21:42:14.003Z,17.20
2023-05-22T21:44:52.275Z,17.20
2023-05-22T21:47:27.258Z,17.20
2023-05-22T21:50:06.660Z,17.10
2023-05-22T21:52:47.666Z,17.10
2023-05-22T21:55:28.248Z,17.10
2023-05-22T21:58:04.465Z,17.00
2023-05-22T22:00:43.274Z,17.00
2023-05-22T22:03:20.018Z,16.90
2023-05-22T22:06:02.336Z,16.90
2023-05-22T22:08:40.579Z,16.80
2023-05-22T22:11:16.871Z,16.70
2023-05-22T22:13:53.829Z,16.70
2023-05-22T22:16:36.646Z,16.70
2023-05-22T22:19:14.230Z,16.60
2023-05-22T22:21:53.191Z,16.60
2023-05-22T22:24:33.861Z,16.50
2023-05-22T22:27:11.365Z,16.50
2023-05-22T22:29:49.823Z,16.50
2023-05-22T22:32:26.284Z,16.40
2023-05-22T22:35:05.606Z,16.40
2023-05-22T22:37:49.299Z,16.30
2023-05-22T22:40:27.355Z,16.30
2023-05-22T22:43:06.976Z,16.20
2023-05-22T22:45:44.448Z,16.20
2023-05-22T22:48:22.802Z,16.10
2023-05-22T22:51:00.623Z,16.10
2023-05-22T22:53:41.691Z,16.10
2023-05-22T22:56:19.729Z,16.00
2023-05-22T22:58:58.072Z,15.90
2023-05-22T23:01:33.886Z,15.80
2023-05-22T23:04:16.467Z,15.80
2023-05-22T23:06:53.344Z,15.80
2023-05-22T23:09:35.008Z,15.70
2023-05-22T23:12:12.579Z,15.60
2023-05-22T23:14:50.753Z,15.50
2023-05-22T23:17:28.855Z,15.50
2023-05-22T23:20:10.800Z,15.40
2023-05-22T23:22:48.995Z,15.40
2023-05-22T23:25:30.562Z,15.40
2023-05-22T23:28:09.065Z,15.40
2023-05-22T23:30:44.433Z,15.30
2023-05-22T23:33:20.538Z,15.30
2023-05-22T23:35:58.118Z,15.30
2023-05-22T23:38:33.139Z,15.10
2023-05-22T23:41:14.191Z,15.00
2023-05-22T23:43:48.736Z,14.90
2023-05-22T23:46:24.891Z,14.80
2023-05-22T23:49:01.012Z,14.70
2023-05-22T23:51:36.951Z,14.70
2023-05-22T23:54:17.850Z,14.70
2023-05-22T23:56:56.841Z,14.60
2023-05-22T23:59:35.321Z,14.70
